Dades meteomassalio
Diari Summary for Setembre 4, 2017 Units:  Metric    English   Both
« Previous Day
Next Day »
Diari Semanal Mensual Anual Personalitzat
  Maxima: Minima: Mijana:
Temperatura: -17.8 °C -11.3 °C -6.6 °C
Rosada: -17.8 °C -12.7 °C -10.3 °C
Humitat: Humidity % 40 % 67 %
Velocitat del vent: 0 km/h 0 km/h 9.3 km/h
Racha vent: 0 km/h - -
Vent:- - SSE
Pressio: 0 hPa 34313.7 hPa -
Pluja: 0 mm    
Historical Graphs
 
 
Tabular Data for Setembre 4, 2017
Time Temperature Dew Point Pressure Wind Wind Speed Wind Gust Humidity Rainfall Rate (Hourly) solar Conditions
-17.8 °C -17.8 °C 0 hPa Calm     Humidity % 0 mm SolarRadiationWatts/m^2 W/m2 Conditions
00:01 -8.5 °C -11.8 °C 34395 hPa Calm     68 % 0 mm 0.0 W/m2 RA
00:06 -8.2 °C -11.2 °C 34405.1 hPa Calm     71 % 0 mm 0.0 W/m2 CLR
00:11 -8.5 °C -11 °C 34405.1 hPa Calm     75 % 0 mm 0.0 W/m2 CLR
00:16 -8.5 °C -10.7 °C 34405.1 hPa Calm     78 % 0 mm 0.0 W/m2 CLR
00:21 -8.5 °C -10.6 °C 34405.1 hPa Calm     79 % 0 mm 0.0 W/m2 CLR
00:26 -8.5 °C -10.6 °C 34395 hPa Calm     79 % 0 mm 0.0 W/m2 CLR
00:31 -8.5 °C -10.4 °C 34395 hPa Calm     80 % 12.7 mm 0.0 W/m2 CLR
00:36 -8.5 °C -10.2 °C 34395 hPa Calm     82 % 7.62 mm 0.0 W/m2 CLR
00:41 -8.5 °C -10.2 °C 34395 hPa Calm     82 % 0 mm 0.0 W/m2 CLR
00:46 -8.5 °C -10.2 °C 34395 hPa Calm     82 % 0 mm 0.0 W/m2 CLR
00:51 -8.5 °C -10.3 °C 34395 hPa Calm     81 % 0 mm 0.0 W/m2 CLR
00:56 -8.5 °C -10.2 °C 34395 hPa Calm     82 % 0 mm 0.0 W/m2 CLR
01:01 -8.5 °C -10.1 °C 34384.8 hPa Calm     83 % 0 mm 0.0 W/m2 CLR
01:06 -8.8 °C -10.4 °C 34384.8 hPa Calm     83 % 0 mm 0.0 W/m2 CLR
01:11 -8.8 °C -10.9 °C 34384.8 hPa Calm     79 % 0 mm 0.0 W/m2 CLR
01:16 -8.8 °C -11.8 °C 34384.8 hPa SE 20.9 km/h 20.9 km/h 71 % 0 mm 0.0 W/m2 CLR
01:21 -8.8 °C -12.3 °C 34384.8 hPa SSE 20.9 km/h 20.9 km/h 66 % 0 mm 0.0 W/m2 CLR
01:23 -8.8 °C -12.5 °C 34384.8 hPa SE 11.9 km/h 11.9 km/h 65 % 0 mm 0.0 W/m2 CLR
01:27 -8.8 °C -12.5 °C 34371.3 hPa Calm     65 % 0 mm 0.0 W/m2 CLR
01:32 -8.8 °C -12.7 °C 34384.8 hPa Calm     63 % 0 mm 0.0 W/m2 CLR
01:33 -8.8 °C -12.7 °C 34384.8 hPa Calm     63 % 0 mm 0.0 W/m2 CLR
01:38 -8.8 °C -12.2 °C 34384.8 hPa Calm     67 % 0 mm 0.0 W/m2 CLR
01:43 -8.8 °C -12.1 °C 34384.8 hPa Calm     68 % 0 mm 0.0 W/m2 CLR
01:48 -9.1 °C -12.1 °C 34371.3 hPa Calm     71 % 0 mm 0.0 W/m2 CLR
01:53 -9.1 °C -11.7 °C 34371.3 hPa Calm     74 % 0 mm 0.0 W/m2 CLR
01:58 -9.1 °C -11.6 °C 34371.3 hPa Calm     75 % 0 mm 0.0 W/m2 CLR
02:03 -9.4 °C -11.8 °C 34371.3 hPa Calm     76 % 0 mm 0.0 W/m2 CLR
02:08 -9.4 °C -12 °C 34361.1 hPa Calm     74 % 0 mm 0.0 W/m2 CLR
02:13 -9.4 °C -12 °C 34361.1 hPa Calm     74 % 0 mm 0.0 W/m2 CLR
02:18 -9.4 °C -11.9 °C 34361.1 hPa Calm     75 % 0 mm 0.0 W/m2 CLR
02:23 -9.4 °C -11.9 °C 34361.1 hPa Calm     75 % 0 mm 0.0 W/m2 CLR
02:28 -9.4 °C -11.9 °C 34361.1 hPa Calm     75 % 0 mm 0.0 W/m2 CLR
02:33 -9.4 °C -12 °C 34347.6 hPa Calm     74 % 0 mm 0.0 W/m2 CLR
02:38 -9.4 °C -11.6 °C 34347.6 hPa Calm     78 % 0 mm 0.0 W/m2 CLR
02:43 -9.4 °C -11.4 °C 34347.6 hPa Calm     79 % 0 mm 0.0 W/m2 CLR
02:48 -9.4 °C -11.9 °C 34347.6 hPa Calm     75 % 0 mm 0.0 W/m2 CLR
02:53 -9.4 °C -11.9 °C 34347.6 hPa Calm     75 % 0 mm 0.0 W/m2 CLR
02:58 -9.4 °C -11.9 °C 34347.6 hPa Calm     75 % 0 mm 0.0 W/m2 CLR
03:03 -9.8 °C -12.2 °C 34347.6 hPa Calm     75 % 0 mm 0.0 W/m2 CLR
03:08 -9.8 °C -12.3 °C 34347.6 hPa Calm     74 % 0 mm 0.0 W/m2 CLR
03:13 -9.8 °C -11.8 °C 34347.6 hPa Calm     78 % 0 mm 0.0 W/m2 CLR
03:18 -9.8 °C -11.8 °C 34347.6 hPa Calm     78 % 0 mm 0.0 W/m2 CLR
03:23 -9.8 °C -11.8 °C 34347.6 hPa Calm     79 % 0 mm 0.0 W/m2 CLR
03:28 -9.4 °C -11.6 °C 34347.6 hPa Calm     78 % 0 mm 0.0 W/m2 CLR
03:33 -9.4 °C -11.6 °C 34347.6 hPa Calm     78 % 0 mm 0.0 W/m2 CLR
03:38 -9.4 °C -11.8 °C 34347.6 hPa Calm     76 % 0 mm 0.0 W/m2 CLR
03:43 -9.4 °C -11.8 °C 34347.6 hPa Calm     76 % 0 mm 0.0 W/m2 CLR
03:48 -9.4 °C -11.8 °C 34337.4 hPa Calm     76 % 0 mm 0.0 W/m2 CLR
03:53 -9.4 °C -11.9 °C 34337.4 hPa Calm     75 % 0 mm 0.0 W/m2 CLR
03:58 -9.4 °C -11.8 °C 34337.4 hPa Calm     76 % 0 mm 0.0 W/m2 CLR
04:03 -9.4 °C -11.9 °C 34337.4 hPa Calm     75 % 0 mm 0.0 W/m2 CLR
04:08 -9.4 °C -11.7 °C 34337.4 hPa Calm     77 % 0 mm 0.0 W/m2 CLR
04:13 -9.8 °C -11.8 °C 34327.3 hPa Calm     78 % 0 mm 0.0 W/m2 CLR
04:18 -9.8 °C -11.8 °C 34327.3 hPa Calm     78 % 0 mm 0.0 W/m2 CLR
04:23 -9.8 °C -11.8 °C 34327.3 hPa Calm     78 % 0 mm 0.0 W/m2 CLR
04:28 -9.8 °C -12 °C 34327.3 hPa Calm     77 % 0 mm 0.0 W/m2 CLR
04:33 -9.8 °C -12.1 °C 34327.3 hPa Calm     76 % 0 mm 0.0 W/m2 CLR
04:38 -9.8 °C -12 °C 34327.3 hPa Calm     77 % 0 mm 0.0 W/m2 CLR
04:43 -9.8 °C -12.1 °C 34327.3 hPa Calm     76 % 0 mm 0.0 W/m2 CLR
04:48 -9.8 °C -11.6 °C 34327.3 hPa Calm     80 % 0 mm 0.0 W/m2 CLR
04:53 -9.8 °C -11.6 °C 34327.3 hPa Calm     81 % 0 mm 0.0 W/m2 CLR
04:58 -9.8 °C -11.4 °C 34327.3 hPa Calm     82 % 0 mm 0.0 W/m2 CLR
05:03 -9.8 °C -11.3 °C 34327.3 hPa Calm     83 % 0 mm 0.0 W/m2 CLR
05:08 -9.8 °C -11.3 °C 34327.3 hPa Calm     83 % 0 mm 0.0 W/m2 CLR
05:13 -9.8 °C -11.6 °C 34327.3 hPa Calm     81 % 0 mm 0.0 W/m2 CLR
05:18 -9.8 °C -11.6 °C 34313.7 hPa South 3.1 km/h   81 % 0 mm 0.0 W/m2 CLR
05:19 -9.8 °C -11.6 °C 34313.7 hPa Calm     81 % 0 mm 0.0 W/m2 CLR
05:23 -9.8 °C -11.6 °C 34327.3 hPa Calm     81 % 0 mm 0.0 W/m2 CLR
05:28 -9.8 °C -11.6 °C 34313.7 hPa Calm     80 % 0 mm 0.0 W/m2 CLR
05:33 -9.8 °C -11.8 °C 34313.7 hPa Calm     79 % 0 mm 0.0 W/m2 CLR
05:38 -9.8 °C -11.8 °C 34313.7 hPa Calm     79 % 0 mm 0.0 W/m2 CLR
05:43 -9.8 °C -11.6 °C 34313.7 hPa Calm     80 % 0 mm 0.0 W/m2 CLR
05:48 -10.1 °C -11.9 °C 34327.3 hPa Calm     80 % 0 mm 0.0 W/m2 CLR
05:53 -10.1 °C -11.8 °C 34327.3 hPa Calm     81 % 0 mm 0.0 W/m2 CLR
05:58 -10.1 °C -11.7 °C 34327.3 hPa Calm     82 % 0 mm 0.0 W/m2 CLR
06:03 -10.1 °C -11.7 °C 34327.3 hPa Calm     82 % 0 mm 0.0 W/m2 CLR
06:08 -10.4 °C -12.1 °C 34327.3 hPa Calm     81 % 0 mm 0.0 W/m2 CLR
06:13 -10.4 °C -12.1 °C 34327.3 hPa Calm     81 % 0 mm 0.0 W/m2 CLR
06:18 -10.4 °C -12.1 °C 34327.3 hPa Calm     81 % 0 mm 0.0 W/m2 CLR
06:23 -10.7 °C -12.4 °C 34327.3 hPa Calm     81 % 0 mm 0.0 W/m2 CLR
06:28 -10.7 °C -12.4 °C 34327.3 hPa Calm     81 % 0 mm 0.0 W/m2 CLR
06:33 -10.7 °C -12.3 °C 34327.3 hPa Calm     82 % 0 mm 0.0 W/m2 CLR
06:38 -10.7 °C -12.3 °C 34327.3 hPa Calm     82 % 0 mm 0.0 W/m2 CLR
06:43 -10.7 °C -12.3 °C 34327.3 hPa Calm     83 % 0 mm 0.0 W/m2 CLR
06:48 -11 °C -12.4 °C 34327.3 hPa Calm     84 % 0 mm 0.0 W/m2 CLR
06:53 -11 °C -12.4 °C 34327.3 hPa Calm     84 % 0 mm 0.0 W/m2 CLR
06:58 -11 °C -12.3 °C 34327.3 hPa Calm     85 % 0 mm 0.0 W/m2 CLR
07:03 -11 °C -12.3 °C 34327.3 hPa Calm     85 % 0 mm 0.0 W/m2 CLR
07:08 -11 °C -12.3 °C 34327.3 hPa Calm     85 % 0 mm 0.0 W/m2 CLR
07:13 -11.3 °C -12.7 °C 34327.3 hPa Calm     85 % 0 mm 0.0 W/m2 CLR
07:18 -11.3 °C -12.6 °C 34327.3 hPa Calm     86 % 0 mm 0.0 W/m2 CLR
07:23 -11.3 °C -12.6 °C 34337.4 hPa Calm     86 % 0 mm 0.0 W/m2 OVC
07:28 -11.3 °C -12.6 °C 34337.4 hPa Calm     86 % 0 mm 0.0 W/m2 OVC
07:33 -11.3 °C -12.6 °C 34337.4 hPa Calm     86 % 0 mm 0.0 W/m2 OVC
07:38 -11.3 °C -12.4 °C 34347.6 hPa Calm     87 % 0 mm 7.0 W/m2 BKN
07:43 -11.3 °C -12.4 °C 34347.6 hPa Calm     87 % 0 mm 11.0 W/m2 BKN
07:48 -11.3 °C -12.4 °C 34361.1 hPa Calm     87 % 0 mm 12.0 W/m2 BKN
07:53 -11.3 °C -12.4 °C 34361.1 hPa Calm     87 % 0 mm 18.0 W/m2 BKN
07:58 -11.3 °C -12.4 °C 34361.1 hPa Calm     87 % 0 mm 21.0 W/m2 BKN
08:04 -11 °C -12.2 °C 34361.1 hPa SSE 12.9 km/h 12.9 km/h 87 % 0 mm 28.0 W/m2 BKN
08:09 -10.7 °C -11.8 °C 34361.1 hPa Calm     87 % 0 mm 39.0 W/m2 BKN
08:14 -10.7 °C -11.8 °C 34361.1 hPa Calm     88 % 0 mm 39.0 W/m2 BKN
08:19 -10.7 °C -11.8 °C 34371.3 hPa Calm     88 % 0 mm 54.0 W/m2 SCT
08:24 -10.4 °C -11.4 °C 34371.3 hPa Calm     88 % 0 mm 60.0 W/m2 SCT
08:29 -10.1 °C -11.2 °C 34371.3 hPa Calm     87 % 0 mm 62.0 W/m2 SCT
08:34 -10.1 °C -11.2 °C 34371.3 hPa Calm     87 % 0 mm 120.0 W/m2 FEW
08:39 -10.1 °C -11.3 °C 34384.8 hPa Calm     86 % 0 mm 69.0 W/m2 FEW
08:44 -10.1 °C -11.2 °C 34384.8 hPa Calm     87 % 0 mm 98.0 W/m2 FEW
08:49 -9.8 °C -10.9 °C 34384.8 hPa Calm     87 % 0 mm 95.0 W/m2 CLR
08:54 -9.4 °C -10.7 °C 34384.8 hPa Calm     86 % 0 mm 200.0 W/m2 CLR
08:59 -9.4 °C -10.8 °C 34384.8 hPa Calm     85 % 0 mm 105.0 W/m2 CLR
09:04 -9.4 °C -10.9 °C 34384.8 hPa Calm     84 % 0 mm 63.0 W/m2 CLR
09:09 -9.4 °C -11.1 °C 34384.8 hPa Calm     83 % 0 mm 236.0 W/m2 CLR
09:14 -9.1 °C -10.8 °C 34384.8 hPa Calm     82 % 0 mm 246.0 W/m2 CLR
09:19 -8.8 °C -10.7 °C 34395 hPa Calm     80 % 0 mm 262.0 W/m2 CLR
09:24 -8.5 °C -10.8 °C 34395 hPa Calm     77 % 0 mm 279.0 W/m2 CLR
09:29 -8.5 °C -11 °C 34395 hPa Calm     75 % 0 mm 294.0 W/m2 CLR
09:34 -8.5 °C -11.2 °C 34395 hPa Calm     73 % 0 mm 306.0 W/m2 CLR
09:39 -7.9 °C -10.7 °C 34395 hPa Calm     72 % 0 mm 315.0 W/m2 CLR
09:44 -7.6 °C -10.6 °C 34405.1 hPa Calm     71 % 0 mm 338.0 W/m2 CLR
09:49 -7.6 °C -11.1 °C 34405.1 hPa Calm     67 % 0 mm 352.0 W/m2 CLR
09:54 -7.3 °C -10.7 °C 34405.1 hPa SSW 29.8 km/h 29.8 km/h 68 % 0 mm 366.0 W/m2 CLR
09:59 -7.3 °C -10.4 °C 34418.7 hPa SSW 20.9 km/h 20.9 km/h 70 % 0 mm 380.0 W/m2 CLR
10:04 -7 °C -10.1 °C 34418.7 hPa SSE 15 km/h 15 km/h 70 % 0 mm 394.0 W/m2 CLR
10:09 -7 °C -10.1 °C 34418.7 hPa WSW 9 km/h 9 km/h 70 % 0 mm 410.0 W/m2 CLR
10:14 -6.7 °C -9.6 °C 34428.8 hPa WSW 15 km/h 15 km/h 72 % 0 mm 425.0 W/m2 CLR
10:19 -6.7 °C -9.4 °C 34428.8 hPa SSW 20.9 km/h 20.9 km/h 73 % 0 mm 441.0 W/m2 CLR
10:24 -6.3 °C -9.5 °C 34428.8 hPa South 32.8 km/h 32.8 km/h 70 % 0 mm 455.0 W/m2 CLR
10:29 -6.3 °C -9.6 °C 34428.8 hPa South 20.9 km/h 20.9 km/h 69 % 0 mm 471.0 W/m2 CLR
10:34 -6.3 °C -9.6 °C 34428.8 hPa SSW 11.9 km/h 11.9 km/h 69 % 0 mm 487.0 W/m2 CLR
10:39 -6.1 °C -9.6 °C 34428.8 hPa South 29.8 km/h 29.8 km/h 67 % 0 mm 497.0 W/m2 CLR
10:44 -6.1 °C -9.7 °C 34428.8 hPa South 20.9 km/h 20.9 km/h 66 % 0 mm 512.0 W/m2 CLR
10:49 -6.1 °C -9.7 °C 34442.4 hPa WSW 26.9 km/h 26.9 km/h 66 % 0 mm 531.0 W/m2 CLR
10:54 -5.7 °C -9.7 °C 34442.4 hPa SSW 11.9 km/h 11.9 km/h 64 % 0 mm 543.0 W/m2 CLR
10:59 -5.7 °C -9.6 °C 34442.4 hPa SSW 29.8 km/h 29.8 km/h 65 % 0 mm 557.0 W/m2 CLR
11:04 -5.4 °C -9.4 °C 34442.4 hPa SW 17.9 km/h 17.9 km/h 64 % 0 mm 570.0 W/m2 CLR
11:09 -5.4 °C -9.6 °C 34442.4 hPa SSW 25.9 km/h 25.9 km/h 63 % 0 mm 578.0 W/m2 CLR
11:14 -5.4 °C -9.7 °C 34442.4 hPa SSW 32.8 km/h 32.8 km/h 62 % 0 mm 585.0 W/m2 CLR
11:19 -5.1 °C -9.4 °C 34442.4 hPa South 35.7 km/h 35.7 km/h 62 % 0 mm 596.0 W/m2 CLR
11:24 -5.1 °C -9.2 °C 34442.4 hPa SSW 41.7 km/h 41.7 km/h 63 % 0 mm 608.0 W/m2 CLR
11:29 -5.1 °C -9.2 °C 34442.4 hPa SSW 23.3 km/h 23.3 km/h 63 % 0 mm 621.0 W/m2 CLR
11:34 -4.8 °C -8.9 °C 34442.4 hPa SSE 23.8 km/h 23.8 km/h 63 % 0 mm 635.0 W/m2 CLR
11:39 -4.8 °C -8.8 °C 34442.4 hPa SSW 20.8 km/h 20.8 km/h 64 % 0 mm 645.0 W/m2 CLR
11:44 -4.8 °C -8.8 °C 34442.4 hPa South 25.9 km/h 25.9 km/h 64 % 0 mm 659.0 W/m2 CLR
11:49 -4.8 °C -8.7 °C 34442.4 hPa WSW 26.9 km/h 26.9 km/h 65 % 0 mm 671.0 W/m2 CLR
11:54 -4.8 °C -8.6 °C 34442.4 hPa SW 38.8 km/h 38.8 km/h 66 % 0 mm 675.0 W/m2 CLR
11:59 -4.5 °C -8.4 °C 34452.6 hPa South 38.8 km/h 38.8 km/h 65 % 0 mm 686.0 W/m2 CLR
12:04 -4.5 °C -8.5 °C 34452.6 hPa South 29.8 km/h 29.8 km/h 64 % 0 mm 701.0 W/m2 CLR
12:09 -4.5 °C -8.4 °C 34452.6 hPa SSW 32.8 km/h 32.8 km/h 65 % 0 mm 710.0 W/m2 CLR
12:14 -4.5 °C -8.4 °C 34452.6 hPa SSW 26.9 km/h 26.9 km/h 65 % 0 mm 703.0 W/m2 CLR
12:19 -4.5 °C -8.4 °C 34442.4 hPa SW 41.7 km/h 41.7 km/h 65 % 0 mm 722.0 W/m2 CLR
12:24 -4.2 °C -8.1 °C 34452.6 hPa SW 35.7 km/h 35.7 km/h 65 % 0 mm 737.0 W/m2 CLR
12:29 -4.5 °C -8.5 °C 34452.6 hPa SW 29.8 km/h 29.8 km/h 64 % 0 mm 745.0 W/m2 CLR
12:34 -4.2 °C -8.4 °C 34452.6 hPa SW 17.9 km/h 17.9 km/h 63 % 0 mm 749.0 W/m2 CLR
12:39 -4.2 °C -8.2 °C 34452.6 hPa SSW 26.9 km/h 26.9 km/h 64 % 0 mm 752.0 W/m2 CLR
12:44 -4.2 °C -8.4 °C 34452.6 hPa SW 33.6 km/h 33.6 km/h 63 % 0 mm 765.0 W/m2 CLR
12:49 -4.2 °C -8.5 °C 34452.6 hPa SSW 23.8 km/h 23.8 km/h 62 % 0 mm 763.0 W/m2 CLR
12:54 -4.2 °C -8.8 °C 34452.6 hPa SW 35.7 km/h 35.7 km/h 60 % 0 mm 775.0 W/m2 CLR
12:59 -4.2 °C -8.7 °C 34452.6 hPa SW 26.9 km/h 26.9 km/h 61 % 0 mm 777.0 W/m2 CLR
13:04 -4.2 °C -8.8 °C 34452.6 hPa SW 26.9 km/h 26.9 km/h 60 % 0 mm 780.0 W/m2 CLR
13:09 -3.9 °C -8.5 °C 34452.6 hPa WSW 23.3 km/h 23.3 km/h 60 % 0 mm 789.0 W/m2 CLR
13:14 -3.9 °C -8.8 °C 34452.6 hPa WSW 20.9 km/h 20.9 km/h 58 % 0 mm 796.0 W/m2 CLR
13:19 -3.9 °C -8.8 °C 34452.6 hPa WSW 23.8 km/h 23.8 km/h 58 % 0 mm 800.0 W/m2 CLR
13:24 -3.9 °C -9.1 °C 34452.6 hPa SW 17.9 km/h 17.9 km/h 56 % 0 mm 789.0 W/m2 CLR
13:29 -3.6 °C -8.8 °C 34452.6 hPa SSW 29.8 km/h 29.8 km/h 56 % 0 mm 800.0 W/m2 CLR
13:34 -3.6 °C -9.3 °C 34452.6 hPa SW 18.2 km/h 18.2 km/h 53 % 0 mm 805.0 W/m2 CLR
13:39 -3.6 °C -9.5 °C 34452.6 hPa West 23.8 km/h 23.8 km/h 52 % 0 mm 805.0 W/m2 CLR
13:44 -3.6 °C -9.5 °C 34452.6 hPa Calm     52 % 0 mm 807.0 W/m2 CLR
13:49 -3.6 °C -9.6 °C 34452.6 hPa SSW 15 km/h 15 km/h 51 % 0 mm 810.0 W/m2 CLR
13:54 -3.3 °C -9.3 °C 34452.6 hPa SW 17.9 km/h 17.9 km/h 51 % 0 mm 810.0 W/m2 CLR
13:59 -2.9 °C -8.9 °C 34452.6 hPa SE 5.1 km/h 5.1 km/h 52 % 0 mm 814.0 W/m2 CLR
14:04 -3.3 °C -9.7 °C 34452.6 hPa SSW 9 km/h 9 km/h 49 % 0 mm 814.0 W/m2 CLR
14:09 -2.9 °C -9.4 °C 34452.6 hPa Calm     49 % 0 mm 812.0 W/m2 CLR
14:14 -2.9 °C -9.8 °C 34452.6 hPa WSW 9 km/h   47 % 0 mm 809.0 W/m2 CLR
14:19 -2.9 °C -9.8 °C 34452.6 hPa SSW 17.9 km/h 17.9 km/h 47 % 0 mm 814.0 W/m2 CLR
14:24 -2.9 °C -9.6 °C 34462.7 hPa Calm     48 % 0 mm 812.0 W/m2 CLR
14:29 -2.7 °C -9.7 °C 34462.7 hPa Calm     46 % 0 mm 805.0 W/m2 CLR
14:34 -2.9 °C -9.6 °C 34462.7 hPa NW 9 km/h   48 % 0 mm 807.0 W/m2 CLR
14:39 -2.9 °C -9.8 °C 34452.6 hPa WNW 17.9 km/h 17.9 km/h 47 % 0 mm 802.0 W/m2 CLR
14:45 -2.9 °C -10.2 °C 34462.7 hPa West 23.8 km/h   45 % 0 mm 802.0 W/m2 CLR
14:50 -2.7 °C -9.5 °C 34462.7 hPa WSW 9 km/h   47 % 0 mm 798.0 W/m2 CLR
14:51 -2.7 °C -9.8 °C 34452.6 hPa WSW 2.6 km/h 2.6 km/h 45 % 0 mm 798.0 W/m2 CLR
14:56 -2.7 °C -10.2 °C 34462.7 hPa Calm     43 % 0 mm 791.0 W/m2 CLR
15:01 -2.7 °C -10.2 °C 34462.7 hPa ESE 15 km/h   43 % 0 mm 788.0 W/m2 CLR
15:06 -2.3 °C -9.8 °C 34452.6 hPa Calm     44 % 0 mm 780.0 W/m2 CLR
15:11 -2.7 °C -10.2 °C 34452.6 hPa Calm     43 % 0 mm 773.0 W/m2 CLR
15:16 -2.7 °C -10.1 °C 34452.6 hPa NNW 15 km/h 15 km/h 44 % 0 mm 770.0 W/m2 CLR
15:21 -2.7 °C -10.2 °C 34452.6 hPa Calm     43 % 0 mm 763.0 W/m2 CLR
15:26 -2.7 °C -9.8 °C 34452.6 hPa Calm     45 % 0 mm 758.0 W/m2 CLR
15:31 -2.3 °C -10.2 °C 34452.6 hPa Calm     42 % 0 mm 747.0 W/m2 CLR
15:36 -2.1 °C -9.9 °C 34452.6 hPa WSW 6 km/h 6 km/h 42 % 0 mm 742.0 W/m2 CLR
15:41 -2.3 °C -10.4 °C 34452.6 hPa Calm     41 % 0 mm 731.0 W/m2 CLR
15:46 -2.3 °C -9.9 °C 34452.6 hPa Calm     43 % 0 mm 719.0 W/m2 CLR
15:52 -2.3 °C -9.9 °C 34452.6 hPa ENE 10.3 km/h 10.3 km/h 43 % 0 mm 710.0 W/m2 CLR
15:57 -2.1 °C -9.5 °C 34452.6 hPa Calm     44 % 0 mm 703.0 W/m2 CLR
16:02 -2.7 °C -10.1 °C 34452.6 hPa Calm     44 % 0 mm 691.0 W/m2 CLR
16:07 -2.1 °C -9.3 °C 34452.6 hPa Calm     45 % 0 mm 687.0 W/m2 CLR
16:11 -2.1 °C -9.7 °C 34442.4 hPa Calm     43 % 0 mm 677.0 W/m2 CLR
16:17 -2.1 °C -9.9 °C 34442.4 hPa West 3.1 km/h   42 % 0 mm 668.0 W/m2 CLR
16:22 -2.1 °C -9.9 °C 34442.4 hPa Calm     42 % 0 mm 654.0 W/m2 CLR
16:27 -1.7 °C -9.6 °C 34442.4 hPa Calm     42 % 0 mm 645.0 W/m2 CLR
16:32 -1.7 °C -9.6 °C 34442.4 hPa Calm     42 % 0 mm 631.0 W/m2 CLR
16:37 -1.7 °C -9.6 °C 34442.4 hPa NW 6 km/h   42 % 0 mm 626.0 W/m2 CLR
16:42 -1.7 °C -9.8 °C 34442.4 hPa Calm     41 % 0 mm 615.0 W/m2 CLR
16:47 -2.1 °C -9.9 °C 34442.4 hPa North 6 km/h 6 km/h 42 % 0 mm 601.0 W/m2 CLR
16:52 -2.1 °C -10.1 °C 34442.4 hPa Calm     41 % 0 mm 591.0 W/m2 CLR
16:57 -2.1 °C -9.9 °C 34442.4 hPa ENE 15 km/h 15 km/h 42 % 0 mm 577.0 W/m2 CLR
17:02 -2.1 °C -9.9 °C 34442.4 hPa North 11.9 km/h 11.9 km/h 42 % 0 mm 566.0 W/m2 CLR
17:07 -2.1 °C -9.7 °C 34442.4 hPa NNW 6 km/h 6 km/h 43 % 0 mm 555.0 W/m2 CLR
17:12 -2.1 °C -9.7 °C 34442.4 hPa NW 11.9 km/h 11.9 km/h 43 % 0 mm 543.0 W/m2 CLR
17:17 -1.7 °C -9.6 °C 34442.4 hPa NNW 15.6 km/h 15.6 km/h 42 % 0 mm 536.0 W/m2 CLR
17:22 -1.7 °C -9.6 °C 34442.4 hPa Calm     42 % 0 mm 526.0 W/m2 CLR
17:27 -1.7 °C -9.8 °C 34442.4 hPa Calm     41 % 0 mm 515.0 W/m2 CLR
17:32 -1.7 °C -9.8 °C 34442.4 hPa Calm     41 % 0 mm 503.0 W/m2 CLR
17:37 -1.4 °C -9.8 °C 34442.4 hPa Calm     40 % 0 mm 496.0 W/m2 CLR
17:42 -1.7 °C -10.1 °C 34442.4 hPa Calm     40 % 0 mm 485.0 W/m2 CLR
17:47 -1.7 °C -8.8 °C 34442.4 hPa ENE 3.1 km/h 3.1 km/h 46 % 0 mm 483.0 W/m2 CLR
17:52 -2.1 °C -8.6 °C 34442.4 hPa ENE 26.9 km/h 26.9 km/h 49 % 0 mm 461.0 W/m2 CLR
17:57 -2.1 °C -8.6 °C 34452.6 hPa NE 23.8 km/h 23.8 km/h 49 % 0 mm 445.0 W/m2 CLR
18:02 -2.3 °C -8.7 °C 34452.6 hPa NE 23.8 km/h 23.8 km/h 50 % 0 mm 424.0 W/m2 CLR
18:07 -2.3 °C -8.5 °C 34452.6 hPa East 29.8 km/h 29.8 km/h 51 % 0 mm 397.0 W/m2 CLR
18:12 -2.1 °C -8.2 °C 34452.6 hPa ENE 29.8 km/h 29.8 km/h 51 % 0 mm 366.0 W/m2 CLR
18:17 -2.3 °C -8.3 °C 34452.6 hPa ENE 29.8 km/h 29.8 km/h 52 % 0 mm 350.0 W/m2 CLR
18:22 -2.3 °C -8.2 °C 34462.7 hPa ENE 32.8 km/h 32.8 km/h 53 % 0 mm 332.0 W/m2 CLR
18:27 -2.3 °C -8 °C 34462.7 hPa ENE 29.8 km/h 29.8 km/h 54 % 0 mm 63.0 W/m2 CLR
18:32 -2.7 °C -8.1 °C 34462.7 hPa ENE 36.2 km/h 36.2 km/h 55 % 0 mm 200.0 W/m2 FEW
18:37 -2.7 °C -8.1 °C 34462.7 hPa East 29.8 km/h 29.8 km/h 55 % 0 mm 278.0 W/m2 CLR
18:42 -2.9 °C -8.2 °C 34462.7 hPa NE 29.8 km/h 29.8 km/h 56 % 0 mm 264.0 W/m2 CLR
18:47 -2.9 °C -8.2 °C 34476.3 hPa NE 29.8 km/h 29.8 km/h 56 % 0 mm 246.0 W/m2 CLR
18:52 -3.3 °C -8.4 °C 34476.3 hPa East 33.6 km/h 33.6 km/h 57 % 0 mm 49.0 W/m2 FEW
18:57 -3.3 °C -8.4 °C 34476.3 hPa ENE 29.8 km/h 29.8 km/h 57 % 0 mm 207.0 W/m2 FEW
19:02 -3.3 °C -8.5 °C 34476.3 hPa ENE 29.8 km/h 29.8 km/h 56 % 0 mm 192.0 W/m2 CLR
19:07 -3.3 °C -8.7 °C 34476.3 hPa East 29.8 km/h 29.8 km/h 55 % 0 mm 172.0 W/m2 CLR
19:08 -3.3 °C -8.7 °C 34476.3 hPa East 29.8 km/h 29.8 km/h 55 % 0 mm 165.0 W/m2 CLR
19:13 -3.6 °C -8.8 °C 34476.3 hPa ENE 26.9 km/h 26.9 km/h 56 % 0 mm 149.0 W/m2 CLR
19:18 -3.6 °C -8.8 °C 34476.3 hPa ENE 35.7 km/h 35.7 km/h 56 % 0 mm 134.0 W/m2 CLR
19:23 -3.6 °C -8.7 °C 34486.4 hPa ESE 20.9 km/h 20.9 km/h 57 % 0 mm 114.0 W/m2 CLR
19:28 -3.6 °C -8.7 °C 34486.4 hPa East 35.7 km/h 35.7 km/h 57 % 0 mm 100.0 W/m2 CLR
19:33 -3.6 °C -8.5 °C 34486.4 hPa ENE 28.5 km/h 28.5 km/h 58 % 0 mm 83.0 W/m2 FEW
19:38 -3.9 °C -8.8 °C 34486.4 hPa ENE 26.9 km/h 26.9 km/h 58 % 0 mm 70.0 W/m2 FEW
19:43 -3.9 °C -8.7 °C 34486.4 hPa ENE 29.8 km/h 29.8 km/h 59 % 0 mm 56.0 W/m2 SCT
19:48 -3.9 °C -8.5 °C 34496.6 hPa ENE 28.5 km/h 28.5 km/h 60 % 0 mm 47.0 W/m2 SCT
19:53 -4.2 °C -8.7 °C 34486.4 hPa East 23.8 km/h 23.8 km/h 61 % 0 mm 33.0 W/m2 BKN
19:58 -4.2 °C -8.7 °C 34496.6 hPa ENE 25.9 km/h 25.9 km/h 61 % 0 mm 26.0 W/m2 BKN
20:03 -4.2 °C -8.5 °C 34496.6 hPa ENE 23.8 km/h 23.8 km/h 62 % 0 mm 19.0 W/m2 BKN
20:08 -4.2 °C -8.5 °C 34496.6 hPa East 20.9 km/h 20.9 km/h 62 % 0 mm 16.0 W/m2 BKN
20:13 -4.5 °C -8.8 °C 34510.1 hPa ENE 17.9 km/h 17.9 km/h 62 % 0 mm 12.0 W/m2 BKN
20:18 -4.5 °C -8.8 °C 34510.1 hPa ENE 20.9 km/h 20.9 km/h 62 % 0 mm 9.0 W/m2 BKN
20:23 -4.8 °C -9.1 °C 34510.1 hPa NE 12.9 km/h 12.9 km/h 62 % 0 mm 5.0 W/m2 BKN
20:29 -4.8 °C -8.9 °C 34510.1 hPa ENE 15 km/h 15 km/h 63 % 0 mm 0.0 W/m2 OVC
20:34 -5.1 °C -9.2 °C 34510.1 hPa NE 9 km/h 10.1 km/h 63 % 0 mm 0.0 W/m2 OVC
20:39 -5.1 °C -9.1 °C 34520.3 hPa ENE 6 km/h 7.7 km/h 64 % 0 mm 0.0 W/m2 CLR
20:44 -5.1 °C -9.1 °C 34520.3 hPa Calm     64 % 0 mm 0.0 W/m2 CLR
20:49 -5.4 °C -9.3 °C 34520.3 hPa East 12.9 km/h 14.5 km/h 65 % 0 mm 0.0 W/m2 CLR
20:54 -5.4 °C -9.3 °C 34520.3 hPa East 20.9 km/h 20.9 km/h 65 % 0 mm 0.0 W/m2 CLR
20:59 -5.7 °C -9.4 °C 34520.3 hPa ENE 15 km/h 15 km/h 66 % 0 mm 0.0 W/m2 CLR
21:04 -5.7 °C -9.4 °C 34520.3 hPa East 20.9 km/h 20.9 km/h 66 % 0 mm 0.0 W/m2 CLR
21:09 -5.7 °C -9.4 °C 34520.3 hPa East 15 km/h 15 km/h 66 % 0 mm 0.0 W/m2 CLR
21:14 -5.7 °C -9.3 °C 34533.8 hPa East 15.6 km/h 15.6 km/h 67 % 0 mm 0.0 W/m2 CLR
21:19 -5.7 °C -9.3 °C 34533.8 hPa ENE 20.9 km/h 20.9 km/h 67 % 0 mm 0.0 W/m2 CLR
21:24 -6.1 °C -9.6 °C 34533.8 hPa ENE 15.6 km/h 15.6 km/h 67 % 0 mm 0.0 W/m2 CLR
21:29 -6.1 °C -9.4 °C 34544 hPa ENE 9 km/h   68 % 0 mm 0.0 W/m2 CLR
21:34 -6.3 °C -9.8 °C 34544 hPa Calm     68 % 0 mm 0.0 W/m2 CLR
21:39 -6.7 °C -9.9 °C 34544 hPa East 9 km/h   69 % 0 mm 0.0 W/m2 CLR
21:45 -6.7 °C -9.8 °C 34544 hPa Calm   1.8 km/h 70 % 0 mm 0.0 W/m2 CLR
21:50 -7 °C -10.1 °C 34554.1 hPa ENE 15 km/h 15 km/h 70 % 0 mm 0.0 W/m2 CLR
21:55 -7 °C -10.1 °C 34554.1 hPa ENE 15.6 km/h 15.6 km/h 70 % 0 mm 0.0 W/m2 CLR
22:00 -7 °C -10.1 °C 34554.1 hPa ENE 17.9 km/h 17.9 km/h 70 % 0 mm 0.0 W/m2 CLR
22:05 -7 °C -9.9 °C 34554.1 hPa ENE 17.9 km/h 17.9 km/h 71 % 0 mm 0.0 W/m2 CLR
22:10 -7 °C -9.9 °C 34554.1 hPa East 20.9 km/h 20.9 km/h 71 % 0 mm 0.0 W/m2 CLR
22:15 -7 °C -9.9 °C 34554.1 hPa ENE 7.7 km/h 7.7 km/h 71 % 0 mm 0.0 W/m2 CLR
22:20 -7 °C -9.8 °C 34554.1 hPa ENE 20.9 km/h 20.9 km/h 72 % 0 mm 0.0 W/m2 CLR
22:25 -7 °C -9.8 °C 34567.7 hPa Calm     72 % 0 mm 0.0 W/m2 CLR
22:30 -7 °C -9.8 °C 34567.7 hPa Calm     72 % 0 mm 0.0 W/m2 CLR
22:35 -7.3 °C -10.2 °C 34567.7 hPa Calm     72 % 0 mm 0.0 W/m2 CLR
22:36 -7.3 °C -10.2 °C 34567.7 hPa Calm     72 % 0 mm 0.0 W/m2 CLR
22:41 -7.3 °C -10.2 °C 34567.7 hPa Calm     72 % 0 mm 0.0 W/m2 CLR
22:46 -7.3 °C -10.2 °C 34567.7 hPa Calm     72 % 0 mm 0.0 W/m2 CLR
22:51 -7.3 °C -10.1 °C 34577.8 hPa Calm     73 % 0 mm 0.0 W/m2 CLR
22:56 -7.6 °C -10.2 °C 34577.8 hPa Calm     74 % 0 mm 0.0 W/m2 CLR
23:01 -7.6 °C -10.2 °C 34591.4 hPa Calm     74 % 0 mm 0.0 W/m2 CLR
23:06 -7.6 °C -10.1 °C 34591.4 hPa Calm     75 % 0 mm 0.0 W/m2 CLR
23:11 -7.9 °C -10.4 °C 34591.4 hPa Calm     75 % 0 mm 0.0 W/m2 CLR
23:16 -7.9 °C -10.4 °C 34591.4 hPa Calm     75 % 0 mm 0.0 W/m2 CLR
23:21 -7.9 °C -10.4 °C 34591.4 hPa Calm     75 % 0 mm 0.0 W/m2 CLR
23:26 -7.9 °C -10.4 °C 34591.4 hPa Calm     75 % 0 mm 0.0 W/m2 CLR
23:31 -7.9 °C -10.3 °C 34591.4 hPa Calm     76 % 0 mm 0.0 W/m2 CLR
23:36 -8.2 °C -10.4 °C 34591.4 hPa Calm     78 % 0 mm 0.0 W/m2 CLR
23:41 -8.2 °C -10.4 °C 34591.4 hPa Calm     78 % 0 mm 0.0 W/m2 CLR
23:51 -8.2 °C -10.4 °C 34601.5 hPa Calm     78 % 0 mm 0.0 W/m2 CLR
23:56 -8.2 °C -10.4 °C 34601.5 hPa Calm     78 % 0 mm 0.0 W/m2 CLR
Lo Temps de Massalio
Compliments of Weather Underground - 1.25 mb